Time;durP1;ratioP1;P1;durP2;ratioP2;P2;SDS_P1;SDS_P2;PMS_P1;PMS_P2;Temp;Humidity;BMP_temperature;BMP_pressure;BME280_temperature;BME280_humidity;BME280_pressure;Samples;Min_cycle;Max_cycle;Signal;HPM_P1;HPM_P2
2022/12/14 00:01:39;;;;;;;;;;;;;;;-144.99;100.00;52651.94;5022386;28;19929;-74
2022/12/14 00:04:05;;;;;;;;;;;;;;;-144.99;100.00;52635.63;5029438;28;19926;-74
2022/12/14 00:06:34;;;;;;;;;;;;;;;-144.99;100.00;52625.44;5029766;28;19929;-73
2022/12/14 00:09:02;;;;;;;;;;;;;;;-144.99;100.00;52623.38;5023782;28;19926;-73
2022/12/14 00:11:28;;;;;;;;;;;;;;;-144.99;100.00;52631.53;5007315;28;19926;-72
2022/12/14 00:13:56;;;;;;;;;;;;;;;-144.99;100.00;52615.25;5011246;28;19925;-72
2022/12/14 00:16:23;;;;;;;;;;;;;;;-144.99;100.00;52627.47;5012377;28;20008;-69
2022/12/14 00:18:51;;;;;;;;;;;;;;;-144.99;100.00;52631.53;5011210;28;20476;-69
2022/12/14 00:21:18;;;;;;;;;;;;;;;-144.99;100.00;52631.53;5023861;28;19978;-68
2022/12/14 00:23:47;;;;;;;;;;;;;;;-144.99;100.00;52627.47;5025213;28;19952;-68
2022/12/14 00:26:14;;;;;;;;;;;;;;;-144.99;100.00;52613.19;5031421;28;19925;-69
2022/12/14 00:28:41;;;;;;;;;;;;;;;-144.99;100.00;52635.63;5032113;28;19937;-69
2022/12/14 00:31:08;;;;;;;;;;;;;;;-144.99;100.00;52619.31;5032382;28;19932;-69
2022/12/14 00:33:35;;;;;;;;;;;;;;;-144.99;100.00;52631.53;5032769;28;19925;-69
2022/12/14 00:36:02;;;;;;;;;;;;;;;-144.99;100.00;52627.47;5017915;28;19935;-69
2022/12/14 00:38:30;;;;;;;;;;;;;;;-144.99;100.00;52631.53;5010247;28;20468;-69
2022/12/14 00:40:58;;;;;;;;;;;;;;;-144.99;100.00;52629.50;5011061;28;19953;-72
2022/12/14 00:43:25;;;;;;;;;;;;;;;-144.99;100.00;52619.31;5009552;28;19960;-74
2022/12/14 00:45:52;;;;;;;;;;;;;;;-144.99;100.00;52611.16;5011409;28;20457;-73
2022/12/14 00:48:20;;;;;;;;;;;;;;;-144.99;100.00;52664.16;5012824;28;19929;-73
2022/12/14 00:50:47;;;;;;;;;;;;;;;-144.99;100.00;52631.53;5006098;28;19929;-73
2022/12/14 00:53:13;;;;;;;;;;;;;;;-144.99;100.00;52629.50;5005380;28;19933;-73
2022/12/14 00:55:40;;;;;;;;;;;;;;;-144.99;100.00;52656.00;5008775;28;19957;-74
2022/12/14 00:58:09;;;;;;;;;;;;;;;-144.99;100.00;52627.47;5006812;28;19976;-73
2022/12/14 01:00:36;;;;;;;;;;;;;;;-144.99;100.00;52658.03;5007061;28;20262;-73
2022/12/14 01:03:03;;;;;;;;;;;;;;;-144.99;100.00;52623.38;5011965;28;20032;-74
2022/12/14 01:05:30;;;;;;;;;;;;;;;-144.99;100.00;52611.16;5014059;28;19929;-73
2022/12/14 01:07:57;;;;;;;;;;;;;;;-144.99;100.00;52641.72;5014511;28;19929;-75
2022/12/14 01:10:24;;;;;;;;;;;;;;;-144.99;100.00;52635.63;5011425;28;19925;-74
2022/12/14 01:12:50;;;;;;;;;;;;;;;-144.99;100.00;52611.16;5015402;28;20398;-74
2022/12/14 01:15:18;;;;;;;;;;;;;;;-144.99;100.00;52631.53;5014848;28;19965;-74
2022/12/14 01:17:45;;;;;;;;;;;;;;;-144.99;100.00;52639.69;5015829;28;19926;-74
2022/12/14 01:20:12;;;;;;;;;;;;;;;-144.99;100.00;52651.94;5014496;28;19952;-74
2022/12/14 01:22:38;;;;;;;;;;;;;;;-144.99;100.00;52623.38;5019357;28;19988;-75
2022/12/14 01:25:05;;;;;;;;;;;;;;;-144.99;100.00;52621.34;5012113;28;19934;-75
2022/12/14 01:27:32;;;;;;;;;;;;;;;-144.99;100.00;52621.34;5009155;28;19988;-75
2022/12/14 01:29:58;;;;;;;;;;;;;;;-144.99;100.00;52611.16;5012377;28;19925;-76
2022/12/14 01:32:26;;;;;;;;;;;;;;;-144.99;100.00;52619.31;5009497;28;19995;-68
2022/12/14 01:34:53;;;;;;;;;;;;;;;-144.99;100.00;52607.09;5013665;28;19980;-68
2022/12/14 01:37:19;;;;;;;;;;;;;;;-144.99;100.00;52660.09;5013154;28;20353;-68
2022/12/14 01:39:46;;;;;;;;;;;;;;;-144.99;100.00;52684.53;5012684;28;19929;-74
2022/12/14 01:42:14;;;;;;;;;;;;;;;-144.99;100.00;52603.00;5009278;28;19925;-73
2022/12/14 01:44:51;;;;;;;;;;;;;;;-144.99;100.00;52645.81;5009823;28;20093;-72
2022/12/14 01:47:21;;;;;;;;;;;;;;;-144.99;100.00;52623.38;5013521;28;20060;-72
2022/12/14 01:49:50;;;;;;;;;;;;;;;-144.99;100.00;52631.53;5010938;28;19934;-72
2022/12/14 01:52:19;;;;;;;;;;;;;;;-144.99;100.00;52625.44;5012121;28;19957;-71
2022/12/14 01:54:48;;;;;;;;;;;;;;;-144.99;100.00;52603.00;5010941;28;19929;-73
2022/12/14 01:57:16;;;;;;;;;;;;;;;-144.99;100.00;52623.38;5013284;28;19983;-75
2022/12/14 01:59:44;;;;;;;;;;;;;;;-144.99;100.00;52592.81;5008824;28;19952;-76
2022/12/14 02:02:12;;;;;;;;;;;;;;;-144.99;100.00;52684.53;5013872;28;19926;-75
2022/12/14 02:04:41;;;;;;;;;;;;;;;-144.99;100.00;52658.03;5014235;28;19983;-75
2022/12/14 02:07:10;;;;;;;;;;;;;;;-144.99;100.00;52639.69;5014467;28;19930;-75
2022/12/14 02:09:39;;;;;;;;;;;;;;;-144.99;100.00;52627.47;5014175;28;19948;-76
2022/12/14 02:12:08;;;;;;;;;;;;;;;-144.99;100.00;52619.31;5009079;28;19980;-75
2022/12/14 02:14:35;;;;;;;;;;;;;;;-144.99;100.00;52619.31;5012590;28;20302;-75
2022/12/14 02:17:02;;;;;;;;;;;;;;;-144.99;100.00;52664.16;5013126;28;19979;-75
2022/12/14 02:19:29;;;;;;;;;;;;;;;-144.99;100.00;52647.84;5012402;28;19930;-75
2022/12/14 02:22:06;;;;;;;;;;;;;;;-144.99;100.00;52643.78;5011665;28;19926;-75
2022/12/14 02:24:48;;;;;;;;;;;;;;;-144.99;100.00;52621.34;5012536;28;19926;-75
2022/12/14 02:27:27;;;;;;;;;;;;;;;-144.99;100.00;52653.97;5012485;28;19993;-76
2022/12/14 02:30:05;;;;;;;;;;;;;;;-144.99;100.00;52637.66;5018020;28;19913;-76
2022/12/14 02:32:49;;;;;;;;;;;;;;;-144.99;100.00;52651.94;5026890;28;19930;-77
2022/12/14 02:35:19;;;;;;;;;;;;;;;-144.99;100.00;52603.00;5034459;28;19924;-76
2022/12/14 02:37:49;;;;;;;;;;;;;;;-144.99;100.00;52639.69;5032007;28;19926;-73
2022/12/14 02:40:21;;;;;;;;;;;;;;;-144.99;99.96;52631.53;5029649;28;19929;-73
2022/12/14 02:42:54;;;;;;;;;;;;;;;-144.99;99.95;52647.84;5021041;28;19932;-73
2022/12/14 02:45:25;;;;;;;;;;;;;;;-144.99;99.96;52660.09;5024877;28;19925;-69
2022/12/14 02:47:54;;;;;;;;;;;;;;;-144.99;99.64;52664.16;5024327;28;19963;-71
2022/12/14 02:50:23;;;;;;;;;;;;;;;-144.99;99.25;52629.50;5026212;28;19960;-73
2022/12/14 02:52:55;;;;;;;;;;;;;;;-144.99;99.17;52664.16;5034871;28;19981;-76
2022/12/14 02:55:25;;;;;;;;;;;;;;;-144.99;99.12;52649.88;5035349;28;19926;-76
2022/12/14 02:57:56;;;;;;;;;;;;;;;-144.99;98.91;52607.09;5034550;28;19925;-77
2022/12/14 03:00:24;;;;;;;;;;;;;;;-144.99;99.20;52643.78;5015455;28;20499;-76
2022/12/14 03:02:51;;;;;;;;;;;;;;;-144.99;98.95;52627.47;5008791;28;19972;-75
2022/12/14 03:05:18;;;;;;;;;;;;;;;-144.99;98.96;52625.44;5011382;28;19925;-75
2022/12/14 03:07:47;;;;;;;;;;;;;;;-144.99;98.80;52635.63;5012227;28;19930;-76
2022/12/14 03:10:23;;;;;;;;;;;;;;;-144.99;98.32;52660.09;5013064;28;19925;-76
2022/12/14 03:12:54;;;;;;;;;;;;;;;-144.99;97.95;52658.03;5010683;28;20103;-71
2022/12/14 03:15:22;;;;;;;;;;;;;;;-144.99;97.93;52668.22;5005954;28;19936;-71
2022/12/14 03:17:52;;;;;;;;;;;;;;;-144.99;97.76;52621.34;5009960;28;19933;-73
2022/12/14 03:20:21;;;;;;;;;;;;;;;-144.99;97.56;52611.16;5009627;28;19980;-71
2022/12/14 03:22:50;;;;;;;;;;;;;;;-144.99;97.43;52631.53;5009881;28;19933;-71
2022/12/14 03:25:20;;;;;;;;;;;;;;;-144.99;97.67;52651.94;5009883;28;19995;-75
2022/12/14 03:27:51;;;;;;;;;;;;;;;-144.99;97.75;52635.63;5009417;28;20394;-75
2022/12/14 03:30:18;;;;;;;;;;;;;;;-144.99;97.43;52660.09;5009787;28;19932;-75
2022/12/14 03:32:47;;;;;;;;;;;;;;;-144.99;97.53;52647.84;5005079;28;20195;-75
2022/12/14 03:35:17;;;;;;;;;;;;;;;-144.99;97.54;52660.09;4999943;28;20349;-74
2022/12/14 03:37:47;;;;;;;;;;;;;;;-144.99;97.40;52629.50;5007056;28;20301;-75
2022/12/14 03:40:14;;;;;;;;;;;;;;;-144.99;97.25;52651.94;5011425;28;19965;-76
2022/12/14 03:42:47;;;;;;;;;;;;;;;-144.99;97.32;52623.38;5010903;28;19932;-72
2022/12/14 03:45:17;;;;;;;;;;;;;;;-144.99;97.41;52607.09;5000087;28;19984;-72
2022/12/14 03:47:54;;;;;;;;;;;;;;;-144.99;97.47;52656.00;5004696;28;20357;-72
2022/12/14 03:50:24;;;;;;;;;;;;;;;-144.99;97.25;52651.94;5010057;28;20975;-73
2022/12/14 03:52:56;;;;;;;;;;;;;;;-144.99;97.74;52637.66;5008338;28;20050;-74
2022/12/14 03:55:26;;;;;;;;;;;;;;;-144.99;97.46;52680.47;5009774;28;19976;-73
2022/12/14 03:58:00;;;;;;;;;;;;;;;-144.99;97.21;52627.47;5009429;28;19984;-73
2022/12/14 04:00:30;;;;;;;;;;;;;;;-144.99;96.94;52623.38;5008007;28;20330;-73
2022/12/14 04:03:02;;;;;;;;;;;;;;;-144.99;96.52;52643.78;5008626;28;19929;-72
2022/12/14 04:05:34;;;;;;;;;;;;;;;-144.99;96.49;52680.47;5002973;28;19925;-72
2022/12/14 04:08:04;;;;;;;;;;;;;;;-144.99;96.41;52651.94;5008882;28;19926;-72
2022/12/14 04:19:25;;;;;;;;;;;;;;;-144.99;96.78;52617.28;5009341;28;19932;-71
2022/12/14 04:21:55;;;;;;;;;;;;;;;-144.99;96.44;52611.16;5009392;28;19953;-75
2022/12/14 04:27:11;;;;;;;;;;;;;;;-144.99;96.57;52637.66;5011172;28;19952;-75
2022/12/14 04:29:56;;;;;;;;;;;;;;;-144.99;96.65;52623.38;5008231;28;19948;-75
2022/12/14 04:32:27;;;;;;;;;;;;;;;-144.99;96.38;52635.63;5008667;28;20022;-76
2022/12/14 04:34:56;;;;;;;;;;;;;;;-144.99;96.83;52633.59;5007949;28;19929;-78
2022/12/14 04:37:26;;;;;;;;;;;;;;;-144.99;96.50;52623.38;5012744;28;20433;-75
2022/12/14 04:39:55;;;;;;;;;;;;;;;-144.99;96.50;52686.59;5015122;28;19941;-76
2022/12/14 04:42:24;;;;;;;;;;;;;;;-144.99;96.42;52678.44;5013685;28;19939;-76
2022/12/14 04:44:53;;;;;;;;;;;;;;;-144.99;96.38;52639.69;5014025;28;19971;-76
2022/12/14 04:47:22;;;;;;;;;;;;;;;-144.99;96.77;52598.94;5010042;28;20016;-76
2022/12/14 04:49:50;;;;;;;;;;;;;;;-144.99;97.13;52639.69;5013271;28;19987;-75
2022/12/14 04:52:21;;;;;;;;;;;;;;;-144.99;97.08;52637.66;5013109;28;19964;-76
2022/12/14 04:54:53;;;;;;;;;;;;;;;-144.99;97.01;52613.19;5012866;28;19979;-76
2022/12/14 04:57:22;;;;;;;;;;;;;;;-144.99;96.92;52627.47;5020265;28;19917;-76
2022/12/14 04:59:50;;;;;;;;;;;;;;;-144.99;96.77;52598.94;5037795;28;19924;-76
2022/12/14 05:02:19;;;;;;;;;;;;;;;-144.99;96.66;52662.13;5036486;28;19933;-76
2022/12/14 05:04:53;;;;;;;;;;;;;;;-144.99;96.80;52651.94;5036869;28;19914;-76
2022/12/14 05:07:26;;;;;;;;;;;;;;;-144.99;97.05;52617.28;5036502;28;19972;-75
2022/12/14 05:09:56;;;;;;;;;;;;;;;-144.99;97.24;52635.63;5036587;28;19926;-75
2022/12/14 05:12:27;;;;;;;;;;;;;;;-144.99;97.24;52647.84;5028328;28;21622;-75
2022/12/14 05:14:59;;;;;;;;;;;;;;;-144.99;97.13;52651.94;5009066;28;19930;-75
2022/12/14 05:17:25;;;;;;;;;;;;;;;-144.99;97.48;52647.84;5005809;28;19940;-77
2022/12/14 05:19:53;;;;;;;;;;;;;;;-144.99;97.72;52635.63;5013023;28;19929;-80
2022/12/14 05:22:20;;;;;;;;;;;;;;;-144.99;98.14;52664.16;5017521;28;19926;-79
2022/12/14 05:24:47;;;;;;;;;;;;;;;-144.99;98.47;52684.53;5018136;28;19953;-79
2022/12/14 05:27:15;;;;;;;;;;;;;;;-144.99;99.21;52651.94;5018167;28;19929;-82
2022/12/14 05:29:42;;;;;;;;;;;;;;;-144.99;98.55;52639.69;5018576;28;20371;-81
2022/12/14 05:32:09;;;;;;;;;;;;;;;-144.99;99.12;52656.00;5018511;28;19925;-81
2022/12/14 05:34:36;;;;;;;;;;;;;;;-144.99;98.82;52619.31;5018539;28;19932;-80
2022/12/14 05:37:03;;;;;;;;;;;;;;;-144.99;99.04;52664.16;5016009;28;19929;-80
2022/12/14 05:41:57;;;;;;;;;;;;;;;-144.99;99.49;52639.69;4980663;28;19937;-66
2022/12/14 05:44:25;;;;;;;;;;;;;;;-144.99;99.78;52696.78;4985833;28;20000;-67
2022/12/14 05:46:51;;;;;;;;;;;;;;;-144.99;100.00;52639.69;4995034;28;20307;-64
2022/12/14 05:49:18;;;;;;;;;;;;;;;-144.99;100.00;52660.09;4993109;28;19929;-68
2022/12/14 05:51:44;;;;;;;;;;;;;;;-144.99;100.00;52643.78;4995424;28;20026;-65
2022/12/14 05:54:11;;;;;;;;;;;;;;;-144.99;100.00;52672.31;4993001;28;19925;-73
2022/12/14 05:56:37;;;;;;;;;;;;;;;-144.99;100.00;52676.38;4988753;28;19925;-73
2022/12/14 05:59:04;;;;;;;;;;;;;;;-144.99;100.00;52619.31;4988093;28;19926;-73
2022/12/14 06:01:32;;;;;;;;;;;;;;;-144.99;100.00;52631.53;5003348;28;19925;-73
2022/12/14 06:03:58;;;;;;;;;;;;;;;-144.99;100.00;52656.00;4992286;28;20291;-72
2022/12/14 06:06:25;;;;;;;;;;;;;;;-144.99;100.00;52647.84;4992320;28;19996;-64
2022/12/14 06:08:56;;;;;;;;;;;;;;;-144.99;100.00;52629.50;4462700;28;10000560;-67
2022/12/14 06:11:23;;;;;;;;;;;;;;;-144.99;100.00;52651.94;4983195;28;19930;-66
2022/12/14 06:13:50;;;;;;;;;;;;;;;-144.99;100.00;52647.84;4984458;28;19937;-66
2022/12/14 06:16:17;;;;;;;;;;;;;;;-144.99;100.00;52609.13;4976952;28;20427;-68
2022/12/14 06:18:45;;;;;;;;;;;;;;;-144.99;100.00;52629.50;4983487;28;19930;-66
2022/12/14 06:21:12;;;;;;;;;;;;;;;-144.99;100.00;52572.44;4979312;28;19966;-66
2022/12/14 06:23:39;;;;;;;;;;;;;;;-144.99;100.00;52639.69;4987012;28;19996;-66
2022/12/14 06:26:05;;;;;;;;;;;;;;;-144.99;100.00;52680.47;4987393;28;20028;-66
2022/12/14 06:28:32;;;;;;;;;;;;;;;-144.99;100.00;52635.63;4987314;28;19934;-66
2022/12/14 06:30:58;;;;;;;;;;;;;;;-144.99;99.66;52656.00;4983357;28;20016;-66
2022/12/14 06:33:25;;;;;;;;;;;;;;;-144.99;99.66;52629.50;4990259;28;20187;-65
2022/12/14 06:35:53;;;;;;;;;;;;;;;-144.99;99.92;52660.09;4982763;28;19985;-65
2022/12/14 06:38:20;;;;;;;;;;;;;;;-144.99;99.72;52617.28;4982711;28;19930;-65
2022/12/14 06:40:46;;;;;;;;;;;;;;;-144.99;99.80;52643.78;4984320;28;20153;-66
2022/12/14 06:43:13;;;;;;;;;;;;;;;-144.99;99.74;52656.00;4984395;28;20346;-65
2022/12/14 06:45:39;;;;;;;;;;;;;;;-144.99;99.79;52627.47;4982356;28;19965;-65
2022/12/14 06:48:06;;;;;;;;;;;;;;;-144.99;99.52;52656.00;4985112;28;19981;-65
2022/12/14 06:50:33;;;;;;;;;;;;;;;-144.99;99.74;52643.78;4987030;28;19965;-65
2022/12/14 06:53:01;;;;;;;;;;;;;;;-144.99;99.76;52647.84;4981245;28;19929;-65
2022/12/14 06:55:28;;;;;;;;;;;;;;;-144.99;99.79;52629.50;4975391;28;20013;-65
2022/12/14 06:57:55;;;;;;;;;;;;;;;-144.99;99.77;52682.50;4985106;28;19991;-66
2022/12/14 07:00:22;;;;;;;;;;;;;;;-144.99;99.62;52603.00;4981301;28;20470;-65
2022/12/14 07:02:49;;;;;;;;;;;;;;;-144.99;99.45;52615.25;4986697;28;20016;-65
2022/12/14 07:05:16;;;;;;;;;;;;;;;-144.99;99.49;52639.69;4987074;28;19972;-64
2022/12/14 07:07:42;;;;;;;;;;;;;;;-144.99;99.48;52641.72;4986626;28;20454;-65
2022/12/14 07:10:11;;;;;;;;;;;;;;;-144.99;99.51;52643.78;4978023;28;20247;-65
2022/12/14 07:12:38;;;;;;;;;;;;;;;-144.99;99.38;52676.38;4980834;28;19936;-64
2022/12/14 07:15:05;;;;;;;;;;;;;;;-144.99;99.36;52653.97;4978194;28;19930;-65
2022/12/14 07:17:31;;;;;;;;;;;;;;;-144.99;99.31;52664.16;4987226;28;20083;-65
2022/12/14 07:19:58;;;;;;;;;;;;;;;-144.99;99.39;52615.25;4994027;28;19989;-64
2022/12/14 07:22:24;;;;;;;;;;;;;;;-144.99;99.15;52623.38;4984956;28;19952;-64
2022/12/14 07:24:51;;;;;;;;;;;;;;;-144.99;99.20;52647.84;4979510;28;19962;-66
2022/12/14 07:27:19;;;;;;;;;;;;;;;-144.99;99.38;52688.63;4983519;28;19945;-65
2022/12/14 07:29:45;;;;;;;;;;;;;;;-144.99;99.52;52625.44;4985986;28;20350;-65
2022/12/14 07:32:12;;;;;;;;;;;;;;;-144.99;99.28;52615.25;4978557;28;19930;-65
2022/12/14 07:34:39;;;;;;;;;;;;;;;-144.99;99.13;52635.63;4986350;28;20087;-65
2022/12/14 07:37:05;;;;;;;;;;;;;;;-144.99;99.15;52623.38;4986049;28;20254;-65
2022/12/14 07:39:32;;;;;;;;;;;;;;;-144.99;99.20;52615.25;4986143;28;19938;-66
2022/12/14 07:41:59;;;;;;;;;;;;;;;-144.99;99.27;52674.34;4983903;28;19992;-64
2022/12/14 07:44:26;;;;;;;;;;;;;;;-144.99;99.39;52660.09;4986744;28;19957;-65
2022/12/14 07:46:53;;;;;;;;;;;;;;;-144.99;99.19;52684.53;4984327;28;19925;-64
2022/12/14 07:49:20;;;;;;;;;;;;;;;-144.99;99.26;52600.97;4634893;28;10000039;-66
2022/12/14 07:51:47;;;;;;;;;;;;;;;-144.99;99.28;52664.16;4984558;28;19966;-65
2022/12/14 07:54:13;;;;;;;;;;;;;;;-144.99;99.41;52647.84;4981670;28;19945;-66
2022/12/14 07:56:41;;;;;;;;;;;;;;;-144.99;99.36;52629.50;4981463;28;19926;-66
2022/12/14 07:59:10;;;;;;;;;;;;;;;-144.99;99.58;52594.84;4986890;28;19926;-67
2022/12/14 08:01:39;;;;;;;;;;;;;;;-144.99;99.22;52660.09;4987076;28;20038;-66
2022/12/14 08:04:07;;;;;;;;;;;;;;;-144.99;97.84;52615.25;4979635;28;19961;-66
2022/12/14 08:06:34;;;;;;;;;;;;;;;-144.99;97.34;52611.16;4986441;28;19933;-67
2022/12/14 08:09:00;;;;;;;;;;;;;;;-144.99;97.06;52590.78;4980293;28;20031;-66
2022/12/14 08:11:27;;;;;;;;;;;;;;;-144.99;96.95;52615.25;4978969;28;20000;-67
2022/12/14 08:13:55;;;;;;;;;;;;;;;-144.99;97.27;52656.00;4985241;28;20178;-67
2022/12/14 08:16:21;;;;;;;;;;;;;;;-144.99;96.54;52603.00;4985687;28;19933;-67
2022/12/14 08:18:50;;;;;;;;;;;;;;;-144.99;96.69;52656.00;4981406;28;20053;-67
2022/12/14 08:21:19;;;;;;;;;;;;;;;-144.99;95.32;52623.38;4972516;28;19930;-67
2022/12/14 08:23:46;;;;;;;;;;;;;;;-144.99;94.92;52623.38;4985846;28;19926;-67
2022/12/14 08:26:12;;;;;;;;;;;;;;;-144.99;93.78;52653.97;4976487;28;19960;-67
2022/12/14 08:28:39;;;;;;;;;;;;;;;-144.99;93.61;52607.09;4977770;28;19988;-68
2022/12/14 08:31:06;;;;;;;;;;;;;;;-144.99;92.37;52615.25;4988753;28;19933;-68
2022/12/14 08:33:33;;;;;;;;;;;;;;;-144.99;91.70;52635.63;4983059;28;20210;-67
2022/12/14 08:36:06;;;;;;;;;;;;;;;-144.99;90.36;52643.78;4981991;28;20118;-67
2022/12/14 08:38:32;;;;;;;;;;;;;;;-144.99;89.00;52629.50;4986115;28;20013;-67
2022/12/14 08:41:01;;;;;;;;;;;;;;;-144.99;88.11;52615.25;4986168;28;20016;-68
2022/12/14 08:43:28;;;;;;;;;;;;;;;-144.99;87.51;52639.69;4980117;28;19961;-68
2022/12/14 08:45:54;;;;;;;;;;;;;;;-144.99;86.83;52603.00;4985809;28;20390;-67
2022/12/14 08:48:21;;;;;;;;;;;;;;;-144.99;85.52;52629.50;4972065;28;20284;-67
2022/12/14 08:50:47;;;;;;;;;;;;;;;-144.99;83.08;52627.47;4981355;28;19952;-68
2022/12/14 08:53:15;;;;;;;;;;;;;;;-144.99;81.38;52605.03;4980294;28;20320;-67
2022/12/14 08:55:42;;;;;;;;;;;;;;;-144.99;79.69;52582.63;4982637;28;20394;-67
2022/12/14 08:58:09;;;;;;;;;;;;;;;-144.99;78.90;52635.63;4985273;28;19976;-68
2022/12/14 09:00:37;;;;;;;;;;;;;;;-144.99;77.97;52578.53;4982821;28;19930;-68
2022/12/14 09:03:04;;;;;;;;;;;;;;;-144.99;77.37;52615.25;4975200;28;20007;-68
2022/12/14 09:05:30;;;;;;;;;;;;;;;-144.99;75.95;52582.63;4981421;28;20341;-68
2022/12/14 09:07:57;;;;;;;;;;;;;;;-144.99;74.26;52598.94;4985518;28;19929;-69
2022/12/14 09:10:25;;;;;;;;;;;;;;;-144.99;73.38;52603.00;4985964;28;20013;-69
2022/12/14 09:12:51;;;;;;;;;;;;;;;-144.99;72.05;52598.94;4978718;28;20323;-69
2022/12/14 09:15:18;;;;;;;;;;;;;;;-144.99;71.48;52590.78;4982483;28;20285;-69
2022/12/14 09:17:44;;;;;;;;;;;;;;;-144.99;69.99;52641.72;4983080;28;19957;-68
2022/12/14 09:20:12;;;;;;;;;;;;;;;-144.99;68.86;52592.81;4982799;28;20151;-69
2022/12/14 09:22:39;;;;;;;;;;;;;;;-144.99;67.68;52582.63;4980574;28;20314;-69
2022/12/14 09:25:05;;;;;;;;;;;;;;;-144.99;67.28;52586.69;4988869;28;20017;-71
2022/12/14 09:27:33;;;;;;;;;;;;;;;-144.99;65.59;52584.66;4989503;28;19952;-69
2022/12/14 09:30:00;;;;;;;;;;;;;;;-144.99;63.84;52586.69;4982199;28;19968;-70
2022/12/14 09:32:28;;;;;;;;;;;;;;;-144.99;62.22;52570.38;4984909;28;20346;-69
2022/12/14 09:34:54;;;;;;;;;;;;;;;-144.99;60.89;52613.19;4988516;28;20634;-70
2022/12/14 09:37:21;;;;;;;;;;;;;;;-144.99;59.17;52574.47;4988708;28;20355;-70
2022/12/14 09:39:47;;;;;;;;;;;;;;;-144.99;58.56;52603.00;4989138;28;19980;-69
2022/12/14 09:42:20;;;;;;;;;;;;;;;-144.99;57.11;52566.31;4981821;28;20470;-69
2022/12/14 09:44:54;;;;;;;;;;;;;;;-144.99;55.99;52576.50;4981942;28;20060;-69
2022/12/14 09:47:24;;;;;;;;;;;;;;;-144.99;54.66;52558.16;4982533;28;19984;-69
2022/12/14 09:49:54;;;;;;;;;;;;;;;-144.99;52.84;52558.16;4988358;28;20307;-69
2022/12/14 09:52:21;;;;;;;;;;;;;;;-144.99;51.88;52570.38;4989231;28;19932;-70
2022/12/14 09:54:49;;;;;;;;;;;;;;;-144.99;51.27;52558.16;4985884;28;20376;-69
2022/12/14 09:57:24;;;;;;;;;;;;;;;-144.99;49.98;52482.75;4989056;28;19925;-70
2022/12/14 09:59:53;;;;;;;;;;;;;;;-144.99;48.96;52517.41;4980889;28;19930;-70
2022/12/14 10:02:26;;;;;;;;;;;;;;;-144.99;47.62;52541.84;4986817;28;19929;-70
2022/12/14 10:04:57;;;;;;;;;;;;;;;-144.99;46.30;52529.63;4994517;28;19929;-70
2022/12/14 10:07:30;;;;;;;;;;;;;;;-144.99;44.63;52435.88;4996105;28;19934;-70
2022/12/14 10:10:01;;;;;;;;;;;;;;;-144.99;43.55;52472.56;4992312;28;20373;-70
2022/12/14 10:12:32;;;;;;;;;;;;;;;-144.99;42.66;52464.41;4986288;28;20314;-70
2022/12/14 10:15:06;;;;;;;;;;;;;;;-144.99;42.36;52452.16;4981348;28;19936;-71
2022/12/14 10:17:42;;;;;;;;;;;;;;;-144.99;41.27;52448.09;4988865;28;19971;-71
2022/12/14 10:20:15;;;;;;;;;;;;;;;-144.99;40.30;52425.66;4984816;28;19926;-70
2022/12/14 10:22:45;;;;;;;;;;;;;;;-144.99;40.32;52448.09;4987679;28;19934;-70
2022/12/14 10:25:13;;;;;;;;;;;;;;;-144.99;39.17;52415.47;4988812;28;19976;-73
2022/12/14 10:27:41;;;;;;;;;;;;;;;-144.99;38.72;52407.31;4988226;28;20350;-70
2022/12/14 10:30:15;;;;;;;;;;;;;;;-144.99;38.19;52433.81;4989276;28;20032;-71
2022/12/14 10:32:47;;;;;;;;;;;;;;;-144.99;37.16;52397.13;4988591;28;19968;-71
2022/12/14 10:35:14;;;;;;;;;;;;;;;-144.99;36.81;52386.94;4988361;28;19937;-71
2022/12/14 10:37:43;;;;;;;;;;;;;;;-144.99;36.66;52366.56;4988251;28;19972;-72
2022/12/14 10:40:15;;;;;;;;;;;;;;;-144.99;36.01;52374.72;4987081;28;19991;-71
2022/12/14 10:42:47;;;;;;;;;;;;;;;-144.99;35.83;52342.09;4979752;28;20034;-71
2022/12/14 10:45:23;;;;;;;;;;;;;;;-144.99;35.47;52350.25;4992391;28;20050;-73
2022/12/14 10:47:52;;;;;;;;;;;;;;;-144.99;34.65;52338.03;4990022;28;20372;-71
2022/12/14 10:50:24;;;;;;;;;;;;;;;-144.99;34.17;52317.66;4987238;28;19992;-72
2022/12/14 10:52:52;;;;;;;;;;;;;;;-144.99;33.88;52333.94;4983141;28;20061;-74
2022/12/14 10:55:21;;;;;;;;;;;;;;;-144.99;33.13;52317.66;4987683;28;19948;-71
2022/12/14 10:57:47;;;;;;;;;;;;;;;-144.99;32.97;52311.53;4987107;28;19993;-73
2022/12/14 11:00:15;;;;;;;;;;;;;;;-144.99;32.16;52297.25;4982133;28;19995;-73
2022/12/14 11:02:44;;;;;;;;;;;;;;;-144.99;32.38;52293.19;4986266;28;20069;-71
2022/12/14 11:05:16;;;;;;;;;;;;;;;-144.99;31.57;52264.66;4988679;28;19948;-74
2022/12/14 11:07:44;;;;;;;;;;;;;;;-144.99;31.37;52289.13;4981548;28;20307;-74
2022/12/14 11:10:15;;;;;;;;;;;;;;;-144.99;30.74;52256.50;4988945;28;20057;-74
2022/12/14 11:12:53;;;;;;;;;;;;;;;-144.99;30.86;52289.13;4979785;28;19995;-73
2022/12/14 11:15:23;;;;;;;;;;;;;;;-144.99;30.77;52276.88;4987686;28;20722;-72
2022/12/14 11:17:59;;;;;;;;;;;;;;;-144.99;30.13;52256.50;4987389;28;19979;-74
2022/12/14 11:20:26;;;;;;;;;;;;;;;-144.99;30.54;52260.56;4979241;28;19944;-74
2022/12/14 11:22:54;;;;;;;;;;;;;;;-144.99;30.25;52248.34;4978539;28;20235;-74
2022/12/14 11:25:33;;;;;;;;;;;;;;;-144.99;30.22;52232.03;4994166;28;19948;-75
2022/12/14 11:28:02;;;;;;;;;;;;;;;-144.99;30.18;52256.50;4990858;28;19953;-75
2022/12/14 11:30:29;;;;;;;;;;;;;;;-144.99;29.90;52256.50;4992040;28;20345;-74
2022/12/14 11:32:57;;;;;;;;;;;;;;;-144.99;29.49;52242.22;4980814;28;19965;-74
2022/12/14 11:35:24;;;;;;;;;;;;;;;-144.99;29.79;52260.56;4985855;28;19948;-74
2022/12/14 11:37:51;;;;;;;;;;;;;;;-144.99;29.47;52250.38;4991733;28;19959;-74
2022/12/14 11:42:47;;;;;;;;;;;;;;;-144.99;29.34;52266.69;5003638;28;19965;-72
2022/12/14 11:45:29;;;;;;;;;;;;;;;-144.99;29.17;52260.56;5020714;28;20193;-72
2022/12/14 11:48:18;;;;;;;;;;;;;;;-144.99;29.04;52301.34;5029871;28;19954;-71
2022/12/14 11:50:46;;;;;;;;;;;;;;;-144.99;29.02;52244.28;5024703;28;19934;-70
2022/12/14 11:53:14;;;;;;;;;;;;;;;-144.99;29.00;52195.34;5031342;28;19955;-72
2022/12/14 11:55:44;;;;;;;;;;;;;;;-144.99;28.42;52215.75;5033362;28;20094;-71
2022/12/14 11:58:15;;;;;;;;;;;;;;;-144.99;27.96;52244.28;5025835;28;19956;-72
2022/12/14 12:00:45;;;;;;;;;;;;;;;-144.99;27.93;52291.16;5014577;28;19953;-71
2022/12/14 12:03:16;;;;;;;;;;;;;;;-144.99;28.06;52219.81;5012257;28;20020;-70
2022/12/14 12:05:44;;;;;;;;;;;;;;;-144.99;28.08;52248.34;5013790;28;19946;-71
2022/12/14 12:08:19;;;;;;;;;;;;;;;-144.99;28.42;52230.00;5007401;28;19973;-71
2022/12/14 12:10:47;;;;;;;;;;;;;;;-144.99;28.10;52242.22;5011277;28;19984;-70
2022/12/14 12:13:18;;;;;;;;;;;;;;;-144.99;28.08;52225.94;5020318;28;20402;-71
2022/12/14 12:15:48;;;;;;;;;;;;;;;-144.99;27.99;52217.78;5019492;28;19945;-71
2022/12/14 12:18:17;;;;;;;;;;;;;;;-144.99;27.67;52242.22;5016713;28;20044;-71
2022/12/14 12:20:49;;;;;;;;;;;;;;;-144.99;27.95;52248.34;5010520;28;20221;-72
2022/12/14 12:23:19;;;;;;;;;;;;;;;-144.99;27.84;52256.50;5001716;28;19957;-72
2022/12/14 12:25:47;;;;;;;;;;;;;;;-144.99;27.82;52232.03;5008352;28;19980;-71
2022/12/14 12:28:17;;;;;;;;;;;;;;;-144.99;27.53;52191.28;5012450;28;20318;-71
2022/12/14 12:30:47;;;;;;;;;;;;;;;-144.99;27.24;52244.28;5020512;28;19956;-70
2022/12/14 12:33:23;;;;;;;;;;;;;;;-144.99;27.34;52260.56;5027335;28;19949;-70
2022/12/14 12:35:53;;;;;;;;;;;;;;;-144.99;27.14;52219.81;5032023;28;19932;-71
2022/12/14 12:38:23;;;;;;;;;;;;;;;-144.99;27.06;52285.03;5033205;28;19943;-71
2022/12/14 12:41:02;;;;;;;;;;;;;;;-144.99;27.44;52240.19;5028011;28;20124;-71
2022/12/14 12:43:33;;;;;;;;;;;;;;;-144.99;27.46;52256.50;5029498;28;19930;-71
2022/12/14 12:46:04;;;;;;;;;;;;;;;-144.99;27.56;52285.03;5028222;28;19944;-71
2022/12/14 12:48:35;;;;;;;;;;;;;;;-144.99;27.62;52305.41;5003673;28;20613;-71